Huvudsida
METAR-TAF:

METAR-TAF

Flygplatser :

Ivato International Airport

Antananarivo, Madagaskar

latitud: 18-48S, longitud: 047-29E, höjd: 1279 m

Aktuellt väderrapport

Denna rapport gjordes för 34 minuter sedan, klockan 07:00 UTC
Vind 13 kt från sydost, varierande mellan ost och syd
Temperatur 16°C
Fuktighet 72%
Tryck 1029 hPa
Sikt 10 km eller mer
Få moln på en höjd av 1700 ft
Brutna moln på en höjd av 2000 ft

METAR: FMMI 150700Z 13013KT 100V180 9999 FEW017 BKN020 16/11 Q1029 NOSIG

Tid: 10:34 (07:34 UTC)

Väderprognos

Denna rapport gjordes för 2 timmar och 34 minuter sedan, klockan 05:00 UTC
Prognos gäller från 15 kl. 06 UTC till 16 kl. 12 UTC
Vind 10 kt från sydost
Sikt 10 km eller mer
Få moln på en höjd av 1700 ft
Brutna moln på en höjd av 2000 ft
Sannolikhet 30% :
Temporärt
från 15 kl. 16 UTC till 16 kl. 03 UTC
Sikt: 4500 m
duggregn

TAF: FMMI 150500Z 1506/1612 14010KT 9999 FEW017 BKN020 PROB30 TEMPO 1516/1603 4500 DZ

Aktuella väderrapporter och prognoser från 4000 flygplatser (METAR- och TAF-rapporter).

De tillgängliga stationerna syns som gula och röda prickar på kartan.

För musen över prickarna för att se namnen på stationerna.

Klicka sedan för att få väderrapporter och prognoser.

För att ändra kartan: Klicka på de gröna knapparna med ett svart kors på för att zooma in; den gröna knappen med ett streck på för att zooma ut; eller på de gröna pilarna för angränsande kartor.


METAR-TAF: